sensor_id;sensor_type;location;lat;lon;timestamp;pressure;altitude;pressure_sealevel;temperature;humidity
34205;BME280;20471;49.680;20.074;2023-02-15T00:00:13;98777.94;;;1.79;79.24
34205;BME280;20471;49.680;20.074;2023-02-15T00:03:02;98775.27;;;1.75;79.36
34205;BME280;20471;49.680;20.074;2023-02-15T00:05:30;98774.83;;;1.73;79.42
34205;BME280;20471;49.680;20.074;2023-02-15T00:07:59;98769.60;;;1.72;79.29
34205;BME280;20471;49.680;20.074;2023-02-15T00:10:27;98768.96;;;1.71;79.29
34205;BME280;20471;49.680;20.074;2023-02-15T00:12:55;98766.23;;;1.70;79.42
34205;BME280;20471;49.680;20.074;2023-02-15T00:15:23;98762.22;;;1.67;79.49
34205;BME280;20471;49.680;20.074;2023-02-15T00:17:52;98757.04;;;1.68;79.48
34205;BME280;20471;49.680;20.074;2023-02-15T00:20:20;98753.63;;;1.68;79.40
34205;BME280;20471;49.680;20.074;2023-02-15T00:22:49;98754.55;;;1.68;79.46
34205;BME280;20471;49.680;20.074;2023-02-15T00:25:17;98757.23;;;1.68;79.64
34205;BME280;20471;49.680;20.074;2023-02-15T00:27:46;98754.66;;;1.66;79.46
34205;BME280;20471;49.680;20.074;2023-02-15T00:30:14;98755.41;;;1.64;79.61
34205;BME280;20471;49.680;20.074;2023-02-15T00:32:42;98763.56;;;1.64;79.65
34205;BME280;20471;49.680;20.074;2023-02-15T00:35:10;98764.31;;;1.65;79.58
34205;BME280;20471;49.680;20.074;2023-02-15T00:37:38;98764.66;;;1.66;79.54
34205;BME280;20471;49.680;20.074;2023-02-15T00:40:07;98763.70;;;1.65;79.56
34205;BME280;20471;49.680;20.074;2023-02-15T00:42:35;98759.30;;;1.64;79.62
34205;BME280;20471;49.680;20.074;2023-02-15T00:45:03;98754.73;;;1.61;79.77
34205;BME280;20471;49.680;20.074;2023-02-15T00:47:32;98754.27;;;1.60;79.67
34205;BME280;20471;49.680;20.074;2023-02-15T00:50:00;98749.62;;;1.61;79.70
34205;BME280;20471;49.680;20.074;2023-02-15T00:52:29;98750.45;;;1.61;79.76
34205;BME280;20471;49.680;20.074;2023-02-15T00:54:58;98750.08;;;1.61;79.75
34205;BME280;20471;49.680;20.074;2023-02-15T00:57:26;98744.64;;;1.61;79.82
34205;BME280;20471;49.680;20.074;2023-02-15T00:59:54;98745.66;;;1.61;79.95
34205;BME280;20471;49.680;20.074;2023-02-15T01:02:22;98742.56;;;1.62;79.79
34205;BME280;20471;49.680;20.074;2023-02-15T01:04:50;98738.16;;;1.62;79.85
34205;BME280;20471;49.680;20.074;2023-02-15T01:07:19;98736.85;;;1.63;79.88
34205;BME280;20471;49.680;20.074;2023-02-15T01:09:47;98736.63;;;1.63;79.86
34205;BME280;20471;49.680;20.074;2023-02-15T01:12:15;98738.95;;;1.61;79.77
34205;BME280;20471;49.680;20.074;2023-02-15T01:14:43;98740.27;;;1.60;79.78
34205;BME280;20471;49.680;20.074;2023-02-15T01:17:11;98735.64;;;1.62;79.83
34205;BME280;20471;49.680;20.074;2023-02-15T01:19:39;98738.64;;;1.65;79.78
34205;BME280;20471;49.680;20.074;2023-02-15T01:22:07;98735.89;;;1.66;79.85
34205;BME280;20471;49.680;20.074;2023-02-15T01:24:36;98733.11;;;1.65;79.87
34205;BME280;20471;49.680;20.074;2023-02-15T01:27:04;98732.11;;;1.62;79.87
34205;BME280;20471;49.680;20.074;2023-02-15T01:29:32;98723.88;;;1.59;79.89
34205;BME280;20471;49.680;20.074;2023-02-15T01:32:00;98721.46;;;1.58;79.98
34205;BME280;20471;49.680;20.074;2023-02-15T01:34:29;98719.02;;;1.57;79.89
34205;BME280;20471;49.680;20.074;2023-02-15T01:36:58;98716.52;;;1.57;80.07
34205;BME280;20471;49.680;20.074;2023-02-15T01:39:26;98712.72;;;1.58;80.01
34205;BME280;20471;49.680;20.074;2023-02-15T01:41:54;98708.59;;;1.59;79.98
34205;BME280;20471;49.680;20.074;2023-02-15T01:52:36;98693.88;;;1.59;79.96
34205;BME280;20471;49.680;20.074;2023-02-15T01:55:06;98691.58;;;1.59;80.02
34205;BME280;20471;49.680;20.074;2023-02-15T01:57:35;98689.57;;;1.60;80.02
34205;BME280;20471;49.680;20.074;2023-02-15T02:00:26;98686.81;;;1.61;80.02
34205;BME280;20471;49.680;20.074;2023-02-15T02:02:55;98688.00;;;1.61;80.05
34205;BME280;20471;49.680;20.074;2023-02-15T02:05:25;98688.17;;;1.61;79.97
34205;BME280;20471;49.680;20.074;2023-02-15T02:07:57;98686.30;;;1.62;79.90
34205;BME280;20471;49.680;20.074;2023-02-15T02:10:27;98683.83;;;1.62;79.93
34205;BME280;20471;49.680;20.074;2023-02-15T02:12:59;98680.48;;;1.62;79.92
34205;BME280;20471;49.680;20.074;2023-02-15T02:15:58;98679.67;;;1.63;79.95
34205;BME280;20471;49.680;20.074;2023-02-15T02:30:26;98669.47;;;1.60;79.89
34205;BME280;20471;49.680;20.074;2023-02-15T02:44:07;98656.38;;;1.66;79.40
34205;BME280;20471;49.680;20.074;2023-02-15T02:46:53;98656.55;;;1.64;79.40
34205;BME280;20471;49.680;20.074;2023-02-15T02:49:31;98659.45;;;1.65;79.21
34205;BME280;20471;49.680;20.074;2023-02-15T02:52:01;98661.62;;;1.67;79.21
34205;BME280;20471;49.680;20.074;2023-02-15T02:54:30;98659.59;;;1.68;79.14
34205;BME280;20471;49.680;20.074;2023-02-15T02:57:03;98661.98;;;1.71;79.13
34205;BME280;20471;49.680;20.074;2023-02-15T02:59:35;98665.44;;;1.74;79.06
34205;BME280;20471;49.680;20.074;2023-02-15T03:02:05;98665.73;;;1.77;78.98
34205;BME280;20471;49.680;20.074;2023-02-15T03:04:43;98666.65;;;1.79;78.92
34205;BME280;20471;49.680;20.074;2023-02-15T03:07:19;98665.98;;;1.79;78.94
34205;BME280;20471;49.680;20.074;2023-02-15T03:09:51;98664.42;;;1.78;78.88
34205;BME280;20471;49.680;20.074;2023-02-15T03:12:24;98664.38;;;1.79;78.80
34205;BME280;20471;49.680;20.074;2023-02-15T03:15:08;98664.17;;;1.77;78.65
34205;BME280;20471;49.680;20.074;2023-02-15T03:17:43;98664.39;;;1.74;78.72
34205;BME280;20471;49.680;20.074;2023-02-15T03:20:35;98665.39;;;1.75;78.60
34205;BME280;20471;49.680;20.074;2023-02-15T03:23:11;98665.44;;;1.74;78.59
34205;BME280;20471;49.680;20.074;2023-02-15T03:25:43;98667.48;;;1.71;78.33
34205;BME280;20471;49.680;20.074;2023-02-15T03:28:17;98665.81;;;1.70;78.36
34205;BME280;20471;49.680;20.074;2023-02-15T03:30:51;98666.29;;;1.69;78.37
34205;BME280;20471;49.680;20.074;2023-02-15T03:33:23;98665.23;;;1.67;78.26
34205;BME280;20471;49.680;20.074;2023-02-15T03:36:26;98666.56;;;1.63;78.26
34205;BME280;20471;49.680;20.074;2023-02-15T03:41:33;98664.70;;;1.56;78.45
34205;BME280;20471;49.680;20.074;2023-02-15T03:44:09;98664.29;;;1.54;78.46
34205;BME280;20471;49.680;20.074;2023-02-15T03:46:51;98655.11;;;1.51;78.33
34205;BME280;20471;49.680;20.074;2023-02-15T03:49:30;98652.68;;;1.49;78.26
34205;BME280;20471;49.680;20.074;2023-02-15T03:52:02;98655.96;;;1.47;78.31
34205;BME280;20471;49.680;20.074;2023-02-15T03:54:33;98652.89;;;1.48;78.52
34205;BME280;20471;49.680;20.074;2023-02-15T04:00:17;98649.07;;;1.47;78.41
34205;BME280;20471;49.680;20.074;2023-02-15T04:05:42;98651.15;;;1.48;78.33
34205;BME280;20471;49.680;20.074;2023-02-15T04:08:11;98651.39;;;1.47;78.21
34205;BME280;20471;49.680;20.074;2023-02-15T04:10:40;98652.22;;;1.45;78.27
34205;BME280;20471;49.680;20.074;2023-02-15T04:13:23;98648.41;;;1.44;78.38
34205;BME280;20471;49.680;20.074;2023-02-15T04:15:53;98641.08;;;1.43;78.23
34205;BME280;20471;49.680;20.074;2023-02-15T04:18:33;98638.21;;;1.45;78.25
34205;BME280;20471;49.680;20.074;2023-02-15T04:21:19;98642.27;;;1.45;78.29
34205;BME280;20471;49.680;20.074;2023-02-15T04:24:05;98642.59;;;1.46;78.23
34205;BME280;20471;49.680;20.074;2023-02-15T04:26:51;98645.05;;;1.46;78.22
34205;BME280;20471;49.680;20.074;2023-02-15T04:29:21;98638.75;;;1.45;78.12
34205;BME280;20471;49.680;20.074;2023-02-15T04:31:51;98642.88;;;1.45;78.16
34205;BME280;20471;49.680;20.074;2023-02-15T04:34:20;98643.57;;;1.43;78.14
34205;BME280;20471;49.680;20.074;2023-02-15T04:36:49;98644.16;;;1.40;78.04
34205;BME280;20471;49.680;20.074;2023-02-15T04:39:18;98645.63;;;1.37;77.94
34205;BME280;20471;49.680;20.074;2023-02-15T04:41:46;98642.52;;;1.34;77.97
34205;BME280;20471;49.680;20.074;2023-02-15T04:44:15;98640.33;;;1.32;78.05
34205;BME280;20471;49.680;20.074;2023-02-15T04:46:43;98642.52;;;1.32;78.05
34205;BME280;20471;49.680;20.074;2023-02-15T04:49:11;98640.77;;;1.32;77.89
34205;BME280;20471;49.680;20.074;2023-02-15T04:51:39;98642.56;;;1.31;77.92
34205;BME280;20471;49.680;20.074;2023-02-15T04:54:07;98646.45;;;1.29;77.98
34205;BME280;20471;49.680;20.074;2023-02-15T04:56:35;98644.83;;;1.25;77.97
34205;BME280;20471;49.680;20.074;2023-02-15T04:59:05;98645.90;;;1.21;77.96
34205;BME280;20471;49.680;20.074;2023-02-15T05:01:33;98651.06;;;1.16;78.04
34205;BME280;20471;49.680;20.074;2023-02-15T05:04:01;98645.13;;;1.15;78.16
34205;BME280;20471;49.680;20.074;2023-02-15T05:06:30;98646.10;;;1.14;78.09
34205;BME280;20471;49.680;20.074;2023-02-15T05:08:58;98646.15;;;1.13;78.06
34205;BME280;20471;49.680;20.074;2023-02-15T05:11:27;98643.64;;;1.11;78.12
34205;BME280;20471;49.680;20.074;2023-02-15T05:13:55;98648.90;;;1.09;78.09
34205;BME280;20471;49.680;20.074;2023-02-15T05:16:24;98648.80;;;1.11;78.23
34205;BME280;20471;49.680;20.074;2023-02-15T05:18:54;98653.49;;;1.12;78.19
34205;BME280;20471;49.680;20.074;2023-02-15T05:21:22;98657.34;;;1.11;78.13
34205;BME280;20471;49.680;20.074;2023-02-15T05:23:50;98660.98;;;1.07;78.15
34205;BME280;20471;49.680;20.074;2023-02-15T05:26:22;98661.96;;;1.06;78.16
34205;BME280;20471;49.680;20.074;2023-02-15T05:29:09;98662.00;;;1.05;78.23
34205;BME280;20471;49.680;20.074;2023-02-15T05:31:37;98659.55;;;1.05;78.32
34205;BME280;20471;49.680;20.074;2023-02-15T05:34:05;98659.27;;;1.04;78.32
34205;BME280;20471;49.680;20.074;2023-02-15T05:36:34;98659.89;;;1.03;78.33
34205;BME280;20471;49.680;20.074;2023-02-15T05:39:02;98658.65;;;1.01;78.43
34205;BME280;20471;49.680;20.074;2023-02-15T05:41:32;98658.52;;;1.00;78.42
34205;BME280;20471;49.680;20.074;2023-02-15T05:44:00;98658.96;;;1.01;78.33
34205;BME280;20471;49.680;20.074;2023-02-15T05:46:28;98659.89;;;1.00;78.36
34205;BME280;20471;49.680;20.074;2023-02-15T05:48:56;98661.10;;;1.01;78.35
34205;BME280;20471;49.680;20.074;2023-02-15T05:51:24;98664.73;;;1.00;78.37
34205;BME280;20471;49.680;20.074;2023-02-15T05:53:52;98663.02;;;0.99;78.32
34205;BME280;20471;49.680;20.074;2023-02-15T05:56:21;98669.72;;;1.00;78.24
34205;BME280;20471;49.680;20.074;2023-02-15T05:58:49;98665.95;;;1.00;78.35
34205;BME280;20471;49.680;20.074;2023-02-15T06:01:20;98668.78;;;1.00;78.21
34205;BME280;20471;49.680;20.074;2023-02-15T06:03:49;98674.08;;;1.00;78.24
34205;BME280;20471;49.680;20.074;2023-02-15T06:06:18;98677.13;;;1.02;78.26
34205;BME280;20471;49.680;20.074;2023-02-15T06:08:46;98672.96;;;1.01;78.36
34205;BME280;20471;49.680;20.074;2023-02-15T06:11:14;98673.79;;;1.02;78.31
34205;BME280;20471;49.680;20.074;2023-02-15T06:13:42;98676.29;;;1.04;78.40
34205;BME280;20471;49.680;20.074;2023-02-15T06:16:11;98676.02;;;1.05;78.59
34205;BME280;20471;49.680;20.074;2023-02-15T06:18:39;98678.49;;;1.05;78.49
34205;BME280;20471;49.680;20.074;2023-02-15T06:21:07;98679.22;;;1.05;78.42
34205;BME280;20471;49.680;20.074;2023-02-15T06:23:35;98678.64;;;1.06;78.40
34205;BME280;20471;49.680;20.074;2023-02-15T06:26:03;98680.92;;;1.06;78.61
34205;BME280;20471;49.680;20.074;2023-02-15T06:28:31;98680.91;;;1.06;78.58
34205;BME280;20471;49.680;20.074;2023-02-15T06:30:59;98682.55;;;1.05;78.54
34205;BME280;20471;49.680;20.074;2023-02-15T06:33:27;98681.81;;;1.04;78.43
34205;BME280;20471;49.680;20.074;2023-02-15T06:35:56;98681.91;;;1.02;78.46
34205;BME280;20471;49.680;20.074;2023-02-15T06:38:24;98681.69;;;1.00;78.56
34205;BME280;20471;49.680;20.074;2023-02-15T06:40:53;98682.38;;;0.97;78.45
34205;BME280;20471;49.680;20.074;2023-02-15T06:43:21;98675.15;;;0.96;78.60
34205;BME280;20471;49.680;20.074;2023-02-15T06:45:49;98680.02;;;0.93;78.39
34205;BME280;20471;49.680;20.074;2023-02-15T06:48:17;98676.56;;;0.92;78.48
34205;BME280;20471;49.680;20.074;2023-02-15T06:50:46;98673.60;;;0.91;78.46
34205;BME280;20471;49.680;20.074;2023-02-15T06:53:14;98670.52;;;0.90;78.40
34205;BME280;20471;49.680;20.074;2023-02-15T06:55:42;98667.33;;;0.90;78.56
34205;BME280;20471;49.680;20.074;2023-02-15T06:58:10;98669.07;;;0.90;78.52
34205;BME280;20471;49.680;20.074;2023-02-15T07:00:38;98670.49;;;0.90;78.39
34205;BME280;20471;49.680;20.074;2023-02-15T07:03:06;98666.22;;;0.90;78.45
34205;BME280;20471;49.680;20.074;2023-02-15T07:05:34;98665.81;;;0.91;78.45
34205;BME280;20471;49.680;20.074;2023-02-15T07:08:03;98668.30;;;0.91;78.30
34205;BME280;20471;49.680;20.074;2023-02-15T07:10:31;98673.14;;;0.92;78.32
34205;BME280;20471;49.680;20.074;2023-02-15T07:12:59;98673.65;;;0.95;78.27
34205;BME280;20471;49.680;20.074;2023-02-15T07:15:27;98676.05;;;0.98;78.18
34205;BME280;20471;49.680;20.074;2023-02-15T07:17:57;98671.88;;;1.01;78.47
34205;BME280;20471;49.680;20.074;2023-02-15T07:20:25;98668.82;;;1.04;78.22
34205;BME280;20471;49.680;20.074;2023-02-15T07:22:53;98669.23;;;1.06;78.17
34205;BME280;20471;49.680;20.074;2023-02-15T07:25:22;98662.39;;;1.07;78.16
34205;BME280;20471;49.680;20.074;2023-02-15T07:27:59;98660.65;;;1.09;78.08
34205;BME280;20471;49.680;20.074;2023-02-15T07:30:27;98656.94;;;1.09;78.09
34205;BME280;20471;49.680;20.074;2023-02-15T07:32:59;98652.97;;;1.10;78.01
34205;BME280;20471;49.680;20.074;2023-02-15T07:35:48;98652.68;;;1.12;78.08
34205;BME280;20471;49.680;20.074;2023-02-15T07:38:18;98654.64;;;1.14;78.07
34205;BME280;20471;49.680;20.074;2023-02-15T07:40:46;98652.79;;;1.15;77.92
34205;BME280;20471;49.680;20.074;2023-02-15T07:43:14;98651.36;;;1.17;77.94
34205;BME280;20471;49.680;20.074;2023-02-15T07:45:43;98651.00;;;1.19;77.73
34205;BME280;20471;49.680;20.074;2023-02-15T07:48:11;98650.55;;;1.23;77.87
34205;BME280;20471;49.680;20.074;2023-02-15T07:50:40;98651.15;;;1.28;77.97
34205;BME280;20471;49.680;20.074;2023-02-15T07:53:08;98650.65;;;1.34;77.93
34205;BME280;20471;49.680;20.074;2023-02-15T07:55:36;98650.52;;;1.38;77.84
34205;BME280;20471;49.680;20.074;2023-02-15T07:58:04;98648.64;;;1.41;77.72
34205;BME280;20471;49.680;20.074;2023-02-15T08:00:32;98643.18;;;1.50;77.68
34205;BME280;20471;49.680;20.074;2023-02-15T08:03:24;98639.70;;;1.62;77.55
34205;BME280;20471;49.680;20.074;2023-02-15T08:05:58;98637.23;;;1.75;77.45
34205;BME280;20471;49.680;20.074;2023-02-15T08:08:27;98638.33;;;1.89;77.46
34205;BME280;20471;49.680;20.074;2023-02-15T08:19:11;98623.09;;;2.51;76.51
34205;BME280;20471;49.680;20.074;2023-02-15T08:21:52;98624.58;;;2.63;76.40
34205;BME280;20471;49.680;20.074;2023-02-15T08:24:22;98620.66;;;2.75;76.16
34205;BME280;20471;49.680;20.074;2023-02-15T08:26:51;98617.13;;;2.89;76.27
34205;BME280;20471;49.680;20.074;2023-02-15T08:29:22;98617.60;;;3.04;76.01
34205;BME280;20471;49.680;20.074;2023-02-15T08:31:56;98616.80;;;3.19;75.73
34205;BME280;20471;49.680;20.074;2023-02-15T08:34:25;98611.20;;;3.34;75.69
34205;BME280;20471;49.680;20.074;2023-02-15T08:36:53;98607.86;;;3.51;75.41
34205;BME280;20471;49.680;20.074;2023-02-15T08:39:22;98607.73;;;3.61;75.25
34205;BME280;20471;49.680;20.074;2023-02-15T08:41:50;98607.69;;;3.75;75.04
34205;BME280;20471;49.680;20.074;2023-02-15T08:44:19;98601.73;;;3.85;74.83
34205;BME280;20471;49.680;20.074;2023-02-15T08:46:48;98600.35;;;4.00;74.70
34205;BME280;20471;49.680;20.074;2023-02-15T08:49:18;98599.31;;;4.19;74.70
34205;BME280;20471;49.680;20.074;2023-02-15T08:51:48;98595.11;;;4.41;74.29
34205;BME280;20471;49.680;20.074;2023-02-15T08:54:20;98592.52;;;4.62;74.01
34205;BME280;20471;49.680;20.074;2023-02-15T08:56:48;98589.77;;;4.86;73.72
34205;BME280;20471;49.680;20.074;2023-02-15T08:59:19;98586.02;;;5.08;73.23
34205;BME280;20471;49.680;20.074;2023-02-15T09:01:50;98579.48;;;5.29;72.91
34205;BME280;20471;49.680;20.074;2023-02-15T09:04:18;98582.08;;;5.52;72.54
34205;BME280;20471;49.680;20.074;2023-02-15T09:06:48;98579.48;;;5.72;72.21
34205;BME280;20471;49.680;20.074;2023-02-15T09:09:18;98578.19;;;5.96;71.65
34205;BME280;20471;49.680;20.074;2023-02-15T09:11:49;98574.27;;;6.17;70.82
34205;BME280;20471;49.680;20.074;2023-02-15T09:14:20;98572.56;;;6.39;70.70
34205;BME280;20471;49.680;20.074;2023-02-15T09:16:52;98566.02;;;6.66;70.10
34205;BME280;20471;49.680;20.074;2023-02-15T09:19:21;98560.02;;;6.92;69.89
34205;BME280;20471;49.680;20.074;2023-02-15T09:21:50;98560.41;;;7.17;69.60
34205;BME280;20471;49.680;20.074;2023-02-15T09:24:19;98558.09;;;7.42;68.96
34205;BME280;20471;49.680;20.074;2023-02-15T09:26:48;98556.36;;;7.64;68.41
34205;BME280;20471;49.680;20.074;2023-02-15T09:29:17;98550.55;;;7.89;68.05
34205;BME280;20471;49.680;20.074;2023-02-15T09:31:48;98548.44;;;8.13;67.32
34205;BME280;20471;49.680;20.074;2023-02-15T09:34:19;98545.19;;;8.36;67.04
34205;BME280;20471;49.680;20.074;2023-02-15T09:36:48;98544.94;;;8.58;65.90
34205;BME280;20471;49.680;20.074;2023-02-15T09:39:25;98542.17;;;8.71;65.08
34205;BME280;20471;49.680;20.074;2023-02-15T09:56:19;98528.48;;;9.40;60.82
34205;BME280;20471;49.680;20.074;2023-02-15T09:59:14;98526.05;;;9.29;60.52
34205;BME280;20471;49.680;20.074;2023-02-15T10:02:24;98524.15;;;9.44;60.84
34205;BME280;20471;49.680;20.074;2023-02-15T10:05:28;98518.95;;;9.63;60.29
34205;BME280;20471;49.680;20.074;2023-02-15T10:21:58;98495.20;;;10.25;58.87
34205;BME280;20471;49.680;20.074;2023-02-15T10:27:21;98486.97;;;10.79;58.65
34205;BME280;20471;49.680;20.074;2023-02-15T10:32:25;98481.93;;;11.12;57.15
34205;BME280;20471;49.680;20.074;2023-02-15T10:35:00;98477.96;;;11.22;56.49
34205;BME280;20471;49.680;20.074;2023-02-15T10:37:49;98476.36;;;11.27;56.43
34205;BME280;20471;49.680;20.074;2023-02-15T10:43:33;98468.73;;;11.62;55.88
34205;BME280;20471;49.680;20.074;2023-02-15T10:57:41;98456.02;;;12.65;52.86
34205;BME280;20471;49.680;20.074;2023-02-15T11:00:23;98451.80;;;12.97;53.15
34205;BME280;20471;49.680;20.074;2023-02-15T11:06:12;98447.75;;;13.70;51.96
34205;BME280;20471;49.680;20.074;2023-02-15T11:08:54;98445.44;;;13.91;50.64
34205;BME280;20471;49.680;20.074;2023-02-15T11:11:28;98437.52;;;13.93;50.03
34205;BME280;20471;49.680;20.074;2023-02-15T11:14:04;98431.13;;;14.03;50.03
34205;BME280;20471;49.680;20.074;2023-02-15T11:16:37;98423.77;;;14.33;50.49
34205;BME280;20471;49.680;20.074;2023-02-15T11:22:13;98413.25;;;14.80;49.27
34205;BME280;20471;49.680;20.074;2023-02-15T11:24:43;98411.80;;;15.00;49.37
34205;BME280;20471;49.680;20.074;2023-02-15T11:27:16;98409.62;;;15.22;48.85
34205;BME280;20471;49.680;20.074;2023-02-15T11:29:57;98408.21;;;15.31;47.86
34205;BME280;20471;49.680;20.074;2023-02-15T11:32:45;98404.64;;;15.31;47.94
34205;BME280;20471;49.680;20.074;2023-02-15T11:35:37;98403.79;;;15.40;47.21
34205;BME280;20471;49.680;20.074;2023-02-15T11:38:28;98399.80;;;15.30;47.11
34205;BME280;20471;49.680;20.074;2023-02-15T11:41:07;98395.87;;;15.34;46.65
34205;BME280;20471;49.680;20.074;2023-02-15T11:43:44;98393.83;;;15.26;46.20
34205;BME280;20471;49.680;20.074;2023-02-15T11:46:14;98384.38;;;15.25;46.48
34205;BME280;20471;49.680;20.074;2023-02-15T11:48:43;98380.55;;;15.42;47.22
34205;BME280;20471;49.680;20.074;2023-02-15T11:51:15;98382.62;;;15.55;47.17
34205;BME280;20471;49.680;20.074;2023-02-15T11:53:45;98374.20;;;15.76;46.41
34205;BME280;20471;49.680;20.074;2023-02-15T11:56:20;98370.09;;;15.91;46.47
34205;BME280;20471;49.680;20.074;2023-02-15T11:59:02;98370.87;;;16.08;45.90
34205;BME280;20471;49.680;20.074;2023-02-15T12:01:43;98370.17;;;16.20;45.41
34205;BME280;20471;49.680;20.074;2023-02-15T12:04:22;98369.73;;;16.29;45.06
34205;BME280;20471;49.680;20.074;2023-02-15T12:06:57;98368.21;;;16.26;44.74
34205;BME280;20471;49.680;20.074;2023-02-15T12:09:46;98364.26;;;16.17;44.32
34205;BME280;20471;49.680;20.074;2023-02-15T12:12:31;98355.39;;;16.16;44.55
34205;BME280;20471;49.680;20.074;2023-02-15T12:15:04;98354.99;;;16.21;44.81
34205;BME280;20471;49.680;20.074;2023-02-15T12:17:41;98352.77;;;16.35;44.30
34205;BME280;20471;49.680;20.074;2023-02-15T12:22:58;98344.27;;;16.44;43.42
34205;BME280;20471;49.680;20.074;2023-02-15T12:28:21;98338.73;;;16.39;43.37
34205;BME280;20471;49.680;20.074;2023-02-15T12:30:52;98335.58;;;16.56;43.81
34205;BME280;20471;49.680;20.074;2023-02-15T12:33:40;98335.46;;;16.67;42.98
34205;BME280;20471;49.680;20.074;2023-02-15T12:36:18;98334.13;;;16.66;43.13
34205;BME280;20471;49.680;20.074;2023-02-15T12:41:44;98324.64;;;16.78;43.09
34205;BME280;20471;49.680;20.074;2023-02-15T12:44:17;98323.36;;;16.86;42.48
34205;BME280;20471;49.680;20.074;2023-02-15T12:46:55;98323.30;;;16.71;41.53
34205;BME280;20471;49.680;20.074;2023-02-15T12:49:25;98318.71;;;16.64;42.38
34205;BME280;20471;49.680;20.074;2023-02-15T12:52:06;98314.11;;;16.77;41.68
34205;BME280;20471;49.680;20.074;2023-02-15T12:54:51;98309.79;;;16.97;42.24
34205;BME280;20471;49.680;20.074;2023-02-15T12:57:31;98310.85;;;17.23;41.89
34205;BME280;20471;49.680;20.074;2023-02-15T13:00:25;98310.64;;;17.29;41.68
34205;BME280;20471;49.680;20.074;2023-02-15T13:02:55;98308.38;;;17.43;41.48
34205;BME280;20471;49.680;20.074;2023-02-15T13:05:39;98303.89;;;17.65;41.63
34205;BME280;20471;49.680;20.074;2023-02-15T13:08:17;98296.00;;;17.83;41.03
34205;BME280;20471;49.680;20.074;2023-02-15T13:10:58;98292.32;;;18.01;40.84
34205;BME280;20471;49.680;20.074;2023-02-15T13:13:29;98290.10;;;18.25;40.93
34205;BME280;20471;49.680;20.074;2023-02-15T13:16:02;98290.11;;;18.49;40.94
34205;BME280;20471;49.680;20.074;2023-02-15T13:18:35;98285.63;;;18.58;39.77
34205;BME280;20471;49.680;20.074;2023-02-15T13:21:25;98285.13;;;18.48;38.84
34205;BME280;20471;49.680;20.074;2023-02-15T13:24:01;98284.47;;;18.25;38.67
34205;BME280;20471;49.680;20.074;2023-02-15T13:26:31;98284.25;;;18.26;39.33
34205;BME280;20471;49.680;20.074;2023-02-15T13:29:14;98288.38;;;18.34;38.97
34205;BME280;20471;49.680;20.074;2023-02-15T13:31:45;98282.39;;;18.32;38.79
34205;BME280;20471;49.680;20.074;2023-02-15T13:34:37;98278.22;;;18.35;38.48
34205;BME280;20471;49.680;20.074;2023-02-15T13:37:17;98281.18;;;18.32;38.05
34205;BME280;20471;49.680;20.074;2023-02-15T13:40:02;98280.80;;;18.04;37.33
34205;BME280;20471;49.680;20.074;2023-02-15T13:42:39;98276.77;;;17.88;38.27
34205;BME280;20471;49.680;20.074;2023-02-15T13:53:48;98265.10;;;18.07;38.01
34205;BME280;20471;49.680;20.074;2023-02-15T14:04:41;98264.04;;;17.38;37.41
34205;BME280;20471;49.680;20.074;2023-02-15T14:13:27;98256.96;;;17.41;37.26
34205;BME280;20471;49.680;20.074;2023-02-15T14:16:06;98254.63;;;17.35;37.39
34205;BME280;20471;49.680;20.074;2023-02-15T14:18:55;98250.78;;;17.32;37.70
34205;BME280;20471;49.680;20.074;2023-02-15T14:21:32;98251.48;;;17.25;37.49
34205;BME280;20471;49.680;20.074;2023-02-15T14:24:08;98252.56;;;17.08;37.78
34205;BME280;20471;49.680;20.074;2023-02-15T14:29:46;98251.09;;;17.06;37.56
34205;BME280;20471;49.680;20.074;2023-02-15T14:34:56;98242.23;;;16.62;37.33
34205;BME280;20471;49.680;20.074;2023-02-15T14:37:49;98245.25;;;16.42;37.36
34205;BME280;20471;49.680;20.074;2023-02-15T14:48:44;98238.91;;;15.60;37.59
34205;BME280;20471;49.680;20.074;2023-02-15T14:54:52;98236.09;;;15.38;37.96
34205;BME280;20471;49.680;20.074;2023-02-15T14:59:39;98230.16;;;15.20;37.83
34205;BME280;20471;49.680;20.074;2023-02-15T15:05:07;98232.26;;;14.82;38.08
34205;BME280;20471;49.680;20.074;2023-02-15T15:07:55;98229.60;;;14.57;38.35
34205;BME280;20471;49.680;20.074;2023-02-15T15:12:56;98227.38;;;14.14;38.94
34205;BME280;20471;49.680;20.074;2023-02-15T15:18:04;98225.63;;;13.84;39.45
34205;BME280;20471;49.680;20.074;2023-02-15T15:20:50;98225.90;;;13.72;39.45
34205;BME280;20471;49.680;20.074;2023-02-15T15:39:50;98220.39;;;11.42;42.79
34205;BME280;20471;49.680;20.074;2023-02-15T15:50:19;98221.73;;;10.23;44.40
34205;BME280;20471;49.680;20.074;2023-02-15T15:52:59;98221.55;;;9.97;45.18
34205;BME280;20471;49.680;20.074;2023-02-15T15:55:30;98221.59;;;9.72;45.61
34205;BME280;20471;49.680;20.074;2023-02-15T15:58:05;98221.31;;;9.48;46.13
34205;BME280;20471;49.680;20.074;2023-02-15T16:00:42;98222.98;;;9.25;46.75
34205;BME280;20471;49.680;20.074;2023-02-15T16:03:24;98225.40;;;9.00;46.85
34205;BME280;20471;49.680;20.074;2023-02-15T16:05:54;98225.97;;;8.66;47.27
34205;BME280;20471;49.680;20.074;2023-02-15T16:11:12;98229.98;;;8.03;48.20
34205;BME280;20471;49.680;20.074;2023-02-15T16:13:42;98227.59;;;7.81;48.91
34205;BME280;20471;49.680;20.074;2023-02-15T16:16:13;98228.10;;;7.80;49.39
34205;BME280;20471;49.680;20.074;2023-02-15T16:18:48;98230.66;;;7.76;49.59
34205;BME280;20471;49.680;20.074;2023-02-15T16:21:23;98234.88;;;7.65;49.74
34205;BME280;20471;49.680;20.074;2023-02-15T16:24:10;98233.45;;;7.47;50.18
34205;BME280;20471;49.680;20.074;2023-02-15T16:29:30;98239.67;;;7.12;50.72
34205;BME280;20471;49.680;20.074;2023-02-15T16:32:21;98241.99;;;6.77;51.15
34205;BME280;20471;49.680;20.074;2023-02-15T16:34:57;98244.23;;;6.51;51.85
34205;BME280;20471;49.680;20.074;2023-02-15T16:37:34;98242.02;;;6.39;52.34
34205;BME280;20471;49.680;20.074;2023-02-15T16:40:04;98239.38;;;6.32;52.51